Time;durP1;ratioP1;P1;durP2;ratioP2;P2;SDS_P1;SDS_P2;PMS_P1;PMS_P2;Temp;Humidity;BMP_temperature;BMP_pressure;BME280_temperature;BME280_humidity;BME280_pressure;Samples;Min_cycle;Max_cycle;Signal;HPM_P1;HPM_P2
2021/11/08 00:01:21;;;;;;;22.17;11.10;;;8.90;99.90;;;;;;4124928;28;20027;-65
2021/11/08 00:03:29;;;;;;;25.27;10.60;;;8.90;99.90;;;;;;4123856;28;20097;-66
2021/11/08 00:05:31;;;;;;;18.73;10.17;;;8.90;99.90;;;;;;4124439;28;20829;-63
2021/11/08 00:07:32;;;;;;;19.23;10.63;;;8.90;99.90;;;;;;4123408;28;20093;-61
2021/11/08 00:09:34;;;;;;;21.90;11.40;;;8.90;99.90;;;;;;4124799;28;20089;-68
2021/11/08 00:11:36;;;;;;;23.73;11.70;;;8.90;99.90;;;;;;4122252;28;20956;-69
2021/11/08 00:13:37;;;;;;;22.00;11.07;;;9.00;99.90;;;;;;4125479;28;20022;-64
2021/11/08 00:18:00;;;;;;;20.03;11.00;;;9.00;99.90;;;;;;4125484;28;20112;-62
2021/11/08 00:20:13;;;;;;;18.73;10.47;;;9.00;99.90;;;;;;4123279;28;20108;-67
2021/11/08 00:22:14;;;;;;;22.73;11.70;;;9.10;99.90;;;;;;4125407;28;20063;-68
2021/11/08 00:24:22;;;;;;;18.23;11.33;;;9.10;99.90;;;;;;4123334;28;20829;-63
2021/11/08 00:26:24;;;;;;;25.27;11.57;;;9.10;99.90;;;;;;4125036;28;20018;-64
2021/11/08 00:28:25;;;;;;;20.83;11.97;;;9.20;99.90;;;;;;4121837;28;20085;-63
2021/11/08 00:30:30;;;;;;;20.83;11.73;;;9.20;99.90;;;;;;4125334;28;20526;-62
2021/11/08 00:32:35;;;;;;;21.67;12.17;;;9.10;99.90;;;;;;4121697;28;20038;-69
2021/11/08 00:34:37;;;;;;;20.43;11.30;;;9.10;99.90;;;;;;4123343;28;20042;-63
2021/11/08 00:36:38;;;;;;;20.67;11.37;;;9.10;99.90;;;;;;4123629;28;20467;-65
2021/11/08 00:38:39;;;;;;;22.43;12.00;;;9.00;99.90;;;;;;4124968;28;20042;-63
2021/11/08 00:40:42;;;;;;;19.83;11.80;;;9.00;99.90;;;;;;4123929;28;20479;-63
2021/11/08 00:42:43;;;;;;;23.17;12.43;;;9.00;99.90;;;;;;4124705;28;20561;-67
2021/11/08 00:44:44;;;;;;;20.73;11.90;;;9.00;99.90;;;;;;4123385;28;20454;-68
2021/11/08 00:46:47;;;;;;;23.63;12.57;;;9.00;99.90;;;;;;4124264;28;20034;-65
2021/11/08 00:48:48;;;;;;;22.10;11.57;;;9.00;99.90;;;;;;4110266;28;20030;-65
2021/11/08 00:50:52;;;;;;;22.97;12.63;;;9.00;99.90;;;;;;4107288;28;20042;-62
2021/11/08 00:52:53;;;;;;;22.37;12.00;;;9.00;99.90;;;;;;4108606;28;20086;-64
2021/11/08 00:54:55;;;;;;;22.47;12.83;;;8.90;99.90;;;;;;4107355;28;20018;-61
2021/11/08 00:56:59;;;;;;;24.60;12.97;;;8.90;99.90;;;;;;4109102;28;20073;-63
2021/11/08 00:59:00;;;;;;;22.57;11.70;;;8.90;99.90;;;;;;4111725;28;20018;-63
2021/11/08 01:01:05;;;;;;;25.47;13.03;;;9.00;99.90;;;;;;4124866;28;20437;-63
2021/11/08 01:03:07;;;;;;;24.47;13.07;;;9.00;99.90;;;;;;4122955;28;20030;-62
2021/11/08 01:05:10;;;;;;;23.87;12.53;;;9.00;99.90;;;;;;4124403;28;20034;-63
2021/11/08 01:07:11;;;;;;;25.17;12.27;;;8.90;99.90;;;;;;4123321;28;20026;-63
2021/11/08 01:09:13;;;;;;;20.33;11.43;;;8.90;99.90;;;;;;4125829;28;20042;-63
2021/11/08 01:11:14;;;;;;;20.80;12.20;;;8.90;99.90;;;;;;4126237;28;20414;-63
2021/11/08 01:13:15;;;;;;;20.50;11.33;;;8.90;99.90;;;;;;4127766;28;20430;-63
2021/11/08 01:15:17;;;;;;;27.23;12.50;;;8.90;99.90;;;;;;4126350;28;20093;-62
2021/11/08 01:17:18;;;;;;;24.30;12.53;;;8.80;99.90;;;;;;4125112;28;20038;-62
2021/11/08 01:19:19;;;;;;;24.33;13.27;;;8.80;99.90;;;;;;4111158;28;20027;-61
2021/11/08 01:21:20;;;;;;;23.97;13.23;;;8.80;99.90;;;;;;4110296;28;20477;-61
2021/11/08 01:23:32;;;;;;;28.10;13.37;;;8.80;99.90;;;;;;4111246;28;20034;-61
2021/11/08 01:25:34;;;;;;;26.87;13.73;;;8.80;99.90;;;;;;4110626;28;20542;-68
2021/11/08 01:27:42;;;;;;;25.47;12.93;;;8.70;99.90;;;;;;4110756;28;20031;-63
2021/11/08 01:29:44;;;;;;;25.90;13.80;;;8.70;99.90;;;;;;4109845;28;20043;-64
2021/11/08 01:31:45;;;;;;;22.50;13.23;;;8.70;99.90;;;;;;4111480;28;20038;-62
2021/11/08 01:33:50;;;;;;;26.63;13.63;;;8.70;99.90;;;;;;4110284;28;20078;-62
2021/11/08 01:36:27;;;;;;;25.13;13.90;;;8.70;99.90;;;;;;4111050;28;20047;-61
2021/11/08 01:40:20;;;;;;;29.33;15.30;;;8.80;99.90;;;;;;4112334;28;20933;-61
2021/11/08 01:42:21;;;;;;;27.83;15.13;;;8.80;99.90;;;;;;4110099;28;20515;-64
2021/11/08 01:44:22;;;;;;;24.90;14.10;;;8.80;99.90;;;;;;4111458;28;20475;-62
2021/11/08 01:46:23;;;;;;;28.50;15.43;;;8.80;99.90;;;;;;4109821;28;20054;-64
2021/11/08 01:48:25;;;;;;;26.23;14.10;;;8.80;99.90;;;;;;4110630;28;20042;-63
2021/11/08 01:50:26;;;;;;;30.17;15.70;;;8.80;99.90;;;;;;4115585;28;20046;-63
2021/11/08 01:52:27;;;;;;;30.27;14.67;;;8.70;99.90;;;;;;4126616;28;20038;-61
2021/11/08 01:54:28;;;;;;;25.63;13.47;;;8.70;99.90;;;;;;4125918;28;20034;-62
2021/11/08 01:56:30;;;;;;;28.07;15.10;;;8.80;99.90;;;;;;4126475;28;20022;-61
2021/11/08 01:58:33;;;;;;;27.57;13.73;;;8.70;99.90;;;;;;4126076;28;20026;-60
2021/11/08 02:00:35;;;;;;;24.73;14.20;;;8.80;99.90;;;;;;4126698;28;20030;-62
2021/11/08 02:02:36;;;;;;;25.70;13.77;;;8.80;99.90;;;;;;4125771;28;20084;-64
2021/11/08 02:04:38;;;;;;;25.27;14.17;;;8.90;99.90;;;;;;4125741;28;20434;-62
2021/11/08 02:06:40;;;;;;;26.63;14.27;;;8.90;99.90;;;;;;4126041;28;20479;-70
2021/11/08 02:08:41;;;;;;;26.77;13.13;;;8.90;99.90;;;;;;4124098;28;20034;-61
2021/11/08 02:10:42;;;;;;;24.13;13.13;;;8.90;99.90;;;;;;4126589;28;20054;-62
2021/11/08 02:12:44;;;;;;;26.33;13.43;;;8.90;99.90;;;;;;4125744;28;20081;-61
2021/11/08 02:14:45;;;;;;;27.73;12.70;;;8.90;99.90;;;;;;4126255;28;20046;-62
2021/11/08 02:16:46;;;;;;;23.87;12.70;;;8.90;99.90;;;;;;4123719;28;20038;-63
2021/11/08 02:18:48;;;;;;;27.27;14.40;;;8.90;99.90;;;;;;4126486;28;20785;-61
2021/11/08 02:20:50;;;;;;;24.23;13.40;;;8.90;99.90;;;;;;4124508;28;20089;-65
2021/11/08 02:22:55;;;;;;;24.90;13.03;;;8.90;99.90;;;;;;4126565;28;20442;-65
2021/11/08 02:24:56;;;;;;;25.13;11.80;;;8.90;99.90;;;;;;4123973;28;20120;-65
2021/11/08 02:26:58;;;;;;;32.10;14.47;;;9.00;99.90;;;;;;4126344;28;20045;-63
2021/11/08 02:28:59;;;;;;;24.27;13.97;;;9.00;99.90;;;;;;4125525;28;20038;-63
2021/11/08 02:31:01;;;;;;;31.67;14.70;;;9.00;99.90;;;;;;4125559;28;20042;-67
2021/11/08 02:33:07;;;;;;;28.00;14.07;;;9.00;99.90;;;;;;4125597;28;20089;-65
2021/11/08 02:35:11;;;;;;;25.73;14.17;;;9.00;99.90;;;;;;4125144;28;20042;-62
2021/11/08 02:37:12;;;;;;;28.03;14.43;;;9.10;99.90;;;;;;4125840;28;20556;-64
2021/11/08 02:39:35;;;;;;;27.70;15.13;;;9.00;99.90;;;;;;4125540;28;20026;-60
2021/11/08 02:41:37;;;;;;;26.63;13.47;;;9.10;99.90;;;;;;4110273;28;20137;-63
2021/11/08 02:43:39;;;;;;;31.27;14.87;;;9.10;99.90;;;;;;4109699;28;20496;-61
2021/11/08 02:45:40;;;;;;;28.23;14.30;;;9.10;99.90;;;;;;4109972;28;20054;-61
2021/11/08 02:47:47;;;;;;;27.53;14.07;;;9.10;99.90;;;;;;4108726;28;20093;-65
2021/11/08 02:49:50;;;;;;;23.93;13.00;;;9.10;99.90;;;;;;4109388;28;20050;-60
2021/11/08 02:52:06;;;;;;;25.97;13.17;;;9.10;99.90;;;;;;4108646;28;20082;-60
2021/11/08 02:54:28;;;;;;;21.77;12.07;;;9.20;99.90;;;;;;4109778;28;20031;-59
2021/11/08 02:56:30;;;;;;;23.33;11.57;;;9.20;99.90;;;;;;4109070;28;20821;-62
2021/11/08 02:58:31;;;;;;;26.40;12.63;;;9.20;99.90;;;;;;4109687;28;20082;-60
2021/11/08 03:00:32;;;;;;;25.67;12.37;;;9.20;99.90;;;;;;4109003;28;20435;-61
2021/11/08 03:02:37;;;;;;;25.37;11.97;;;9.20;99.90;;;;;;4110110;28;20439;-61
2021/11/08 03:04:44;;;;;;;24.87;12.23;;;9.20;99.90;;;;;;4108975;28;20077;-66
2021/11/08 03:06:45;;;;;;;26.57;11.07;;;9.20;99.90;;;;;;4121618;28;20104;-61
2021/11/08 03:08:46;;;;;;;24.10;10.57;;;9.20;99.90;;;;;;4124754;28;20043;-66
2021/11/08 03:10:55;;;;;;;17.53;9.20;;;9.20;99.90;;;;;;4125718;28;20097;-62
2021/11/08 03:12:58;;;;;;;13.23;7.70;;;9.20;99.90;;;;;;4125086;28;20046;-62
2021/11/08 03:15:09;;;;;;;19.23;10.00;;;9.10;99.90;;;;;;4126093;28;20034;-61
2021/11/08 03:17:12;;;;;;;11.37;7.20;;;9.10;99.90;;;;;;4124599;28;20061;-63
2021/11/08 03:21:19;;;;;;;7.37;4.57;;;9.10;99.90;;;;;;4124804;28;20088;-61
2021/11/08 03:23:21;;;;;;;6.63;4.20;;;9.10;99.90;;;;;;4125623;28;20101;-59
2021/11/08 03:25:35;;;;;;;7.13;5.03;;;9.10;99.90;;;;;;4121536;28;20046;-61
2021/11/08 03:27:53;;;;;;;9.10;4.80;;;9.10;99.90;;;;;;4108844;28;20043;-64
2021/11/08 03:29:55;;;;;;;9.00;4.50;;;9.10;99.90;;;;;;4108319;28;20454;-61
2021/11/08 03:31:57;;;;;;;6.17;4.00;;;9.00;99.90;;;;;;4109918;28;20030;-63
2021/11/08 03:33:59;;;;;;;6.47;3.97;;;9.10;99.90;;;;;;4106549;28;20051;-62
2021/11/08 03:36:01;;;;;;;6.07;4.00;;;9.10;99.90;;;;;;4108745;28;20046;-67
2021/11/08 03:38:06;;;;;;;6.93;4.43;;;9.00;99.90;;;;;;4108096;28;20081;-61
2021/11/08 03:40:18;;;;;;;6.93;3.70;;;9.00;99.90;;;;;;4115199;28;20511;-61
2021/11/08 03:42:19;;;;;;;6.57;4.10;;;9.10;99.90;;;;;;4124555;28;20089;-60
2021/11/08 03:44:21;;;;;;;6.27;4.07;;;9.00;99.90;;;;;;4124689;28;20054;-63
2021/11/08 03:46:22;;;;;;;6.63;4.23;;;9.10;99.90;;;;;;4109651;28;20062;-61
2021/11/08 03:48:23;;;;;;;5.97;4.17;;;9.00;99.90;;;;;;4108487;28;20035;-61
2021/11/08 03:50:25;;;;;;;6.60;3.90;;;9.00;99.90;;;;;;4108981;28;20038;-64
2021/11/08 03:52:27;;;;;;;6.07;4.17;;;9.00;99.90;;;;;;4107776;28;20089;-61
2021/11/08 03:54:28;;;;;;;5.17;4.00;;;9.00;99.90;;;;;;4122697;28;20042;-61
2021/11/08 03:56:29;;;;;;;7.13;4.03;;;9.00;99.90;;;;;;4112980;28;20046;-62
2021/11/08 03:58:31;;;;;;;4.53;2.87;;;9.10;99.90;;;;;;4108678;28;20569;-66
2021/11/08 04:00:33;;;;;;;4.60;3.00;;;9.00;99.90;;;;;;4107918;28;20368;-68
2021/11/08 04:02:34;;;;;;;4.60;3.30;;;9.00;99.90;;;;;;4108535;28;20038;-62
2021/11/08 04:04:35;;;;;;;4.63;3.13;;;9.00;99.90;;;;;;4107655;28;20038;-60
2021/11/08 04:06:41;;;;;;;4.90;2.97;;;9.10;99.90;;;;;;4124706;28;20042;-62
2021/11/08 04:08:42;;;;;;;3.60;2.83;;;9.10;99.90;;;;;;4109705;28;20085;-60
2021/11/08 04:10:47;;;;;;;3.77;2.80;;;9.10;99.90;;;;;;4108581;28;20051;-65
2021/11/08 04:12:50;;;;;;;3.37;2.43;;;9.10;99.90;;;;;;4108147;28;20034;-63
2021/11/08 04:14:52;;;;;;;3.20;2.00;;;9.10;99.90;;;;;;4110024;28;20027;-61
2021/11/08 04:16:53;;;;;;;3.23;1.73;;;9.10;99.90;;;;;;4108106;28;20034;-62
2021/11/08 04:18:58;;;;;;;3.83;2.13;;;9.10;99.90;;;;;;4108889;28;20026;-66
2021/11/08 04:21:00;;;;;;;4.53;1.97;;;9.10;99.90;;;;;;4108502;28;20878;-61
2021/11/08 04:23:01;;;;;;;3.10;2.17;;;9.10;99.90;;;;;;4108116;28;20440;-62
2021/11/08 04:25:04;;;;;;;3.00;1.50;;;9.10;99.90;;;;;;4107487;28;20451;-60
2021/11/08 04:27:06;;;;;;;2.17;1.50;;;9.10;99.90;;;;;;4123327;28;20105;-63
2021/11/08 04:29:07;;;;;;;2.77;1.50;;;9.10;99.90;;;;;;4124656;28;20134;-68
2021/11/08 04:31:09;;;;;;;1.67;1.27;;;9.10;99.90;;;;;;4123938;28;20034;-63
2021/11/08 04:33:17;;;;;;;1.27;1.13;;;9.10;99.90;;;;;;4124760;28;20490;-64
2021/11/08 04:35:25;;;;;;;1.60;0.90;;;9.10;99.90;;;;;;4123337;28;20034;-61
2021/11/08 04:42:03;;;;;;;1.27;0.90;;;9.10;99.90;;;;;;4124593;28;20104;-67
2021/11/08 04:50:56;;;;;;;0.60;0.40;;;9.00;99.90;;;;;;4119331;28;20108;-61
2021/11/08 05:23:01;;;;;;;0.93;0.68;;;8.70;99.90;;;;;;4125436;28;20038;-65
2021/11/08 05:31:52;;;;;;;1.10;1.00;;;8.70;99.90;;;;;;4111970;28;20043;-61
2021/11/08 05:33:53;;;;;;;0.80;0.53;;;8.70;99.90;;;;;;4122804;28;20030;-61
2021/11/08 05:35:54;;;;;;;1.63;0.90;;;8.70;99.90;;;;;;4125424;28;20051;-62
2021/11/08 05:37:56;;;;;;;1.70;1.00;;;8.70;99.90;;;;;;4126641;28;20431;-61
2021/11/08 05:40:06;;;;;;;2.07;1.20;;;8.70;99.90;;;;;;4125309;28;20038;-60
2021/11/08 05:42:07;;;;;;;1.60;1.10;;;8.70;99.90;;;;;;4122490;28;20438;-60
2021/11/08 05:44:08;;;;;;;1.20;1.03;;;8.70;99.90;;;;;;4125913;28;20087;-62
2021/11/08 05:46:10;;;;;;;2.07;1.20;;;8.70;99.90;;;;;;4126682;28;20491;-56
2021/11/08 05:48:11;;;;;;;1.40;1.30;;;8.70;99.90;;;;;;4125349;28;20023;-63
2021/11/08 05:50:16;;;;;;;2.10;1.77;;;8.70;99.90;;;;;;4126803;28;20828;-61
2021/11/08 05:52:17;;;;;;;1.53;1.40;;;8.70;99.90;;;;;;4125562;28;20026;-64
2021/11/08 05:54:20;;;;;;;1.80;1.70;;;8.70;99.90;;;;;;4126077;28;20038;-66
2021/11/08 05:58:54;;;;;;;2.33;1.87;;;8.60;99.90;;;;;;4126020;28;20092;-61
2021/11/08 06:49:48;;;;;;;5.50;3.23;;;8.80;99.90;;;;;;4124863;28;20562;-61
2021/11/08 06:51:51;;;;;;;5.73;4.03;;;8.80;99.90;;;;;;4125270;28;20046;-62
2021/11/08 06:53:59;;;;;;;6.77;3.97;;;8.80;99.90;;;;;;4123776;28;20038;-61
2021/11/08 06:56:01;;;;;;;4.27;2.40;;;8.90;99.90;;;;;;4125036;28;20118;-61
2021/11/08 06:58:04;;;;;;;5.53;3.10;;;8.90;99.90;;;;;;4124609;28;20039;-61
2021/11/08 07:00:06;;;;;;;3.27;2.40;;;8.90;99.90;;;;;;4122960;28;20042;-61
2021/11/08 07:02:07;;;;;;;5.13;1.70;;;8.80;99.90;;;;;;4124318;28;20117;-62
2021/11/08 07:04:08;;;;;;;1.50;1.20;;;8.90;99.90;;;;;;4125673;28;20042;-61
2021/11/08 07:06:09;;;;;;;2.37;1.20;;;8.90;99.90;;;;;;4123038;28;20185;-62
2021/11/08 07:08:11;;;;;;;2.03;1.83;;;8.90;99.90;;;;;;4124843;28;20384;-64
2021/11/08 07:10:13;;;;;;;14.27;7.27;;;8.90;99.90;;;;;;4123851;28;20042;-61
2021/11/08 07:12:14;;;;;;;16.23;8.57;;;9.00;99.90;;;;;;4124699;28;20158;-61
2021/11/08 07:14:16;;;;;;;5.90;3.90;;;8.90;99.90;;;;;;4123998;28;20038;-61
2021/11/08 07:16:18;;;;;;;4.97;3.30;;;9.00;99.90;;;;;;4124332;28;20050;-61
2021/11/08 07:18:19;;;;;;;5.87;2.47;;;9.00;99.90;;;;;;4124430;28;20043;-61
2021/11/08 07:20:21;;;;;;;3.63;2.40;;;9.00;99.90;;;;;;4124515;28;20030;-61
2021/11/08 07:22:22;;;;;;;2.97;2.50;;;9.00;99.90;;;;;;4124948;28;20410;-62
2021/11/08 07:24:24;;;;;;;7.33;3.60;;;9.00;99.90;;;;;;4124044;28;20038;-61
2021/11/08 07:26:25;;;;;;;6.63;5.33;;;9.00;99.90;;;;;;4123311;28;20050;-62
2021/11/08 07:28:26;;;;;;;5.97;4.73;;;9.10;99.90;;;;;;4123774;28;20477;-61
2021/11/08 07:30:28;;;;;;;4.60;3.27;;;9.00;99.90;;;;;;4125565;28;20137;-61
2021/11/08 07:32:29;;;;;;;4.83;2.80;;;9.00;99.90;;;;;;4123457;28;20100;-61
2021/11/08 07:34:30;;;;;;;5.97;3.03;;;9.00;99.90;;;;;;4125227;28;20736;-61
2021/11/08 07:36:31;;;;;;;5.23;3.60;;;9.00;99.90;;;;;;4123275;28;20046;-61
2021/11/08 07:38:33;;;;;;;8.00;5.10;;;9.00;99.90;;;;;;4124913;28;20100;-62
2021/11/08 07:40:35;;;;;;;6.93;4.13;;;8.90;99.90;;;;;;4123015;28;20105;-62
2021/11/08 07:42:36;;;;;;;10.07;3.57;;;8.90;99.90;;;;;;4124568;28;20054;-61
2021/11/08 07:44:37;;;;;;;10.17;3.37;;;8.80;99.90;;;;;;4123982;28;20042;-61
2021/11/08 07:46:38;;;;;;;10.77;3.20;;;8.90;99.90;;;;;;4124226;28;20054;-61
2021/11/08 07:48:40;;;;;;;4.43;3.30;;;8.90;99.90;;;;;;4123783;28;20042;-61
2021/11/08 07:50:42;;;;;;;7.10;2.27;;;9.00;99.90;;;;;;4123939;28;20085;-61
2021/11/08 07:52:43;;;;;;;4.63;2.80;;;9.00;99.90;;;;;;4123662;28;20089;-61
2021/11/08 07:54:44;;;;;;;5.17;3.20;;;9.00;99.90;;;;;;4122887;28;20046;-66
2021/11/08 07:56:48;;;;;;;5.80;3.07;;;9.00;99.90;;;;;;4124877;28;20027;-61
2021/11/08 07:58:49;;;;;;;7.00;3.37;;;9.10;99.90;;;;;;4123942;28;20100;-63
2021/11/08 08:00:50;;;;;;;8.13;4.93;;;9.10;99.90;;;;;;4124947;28;20354;-61
2021/11/08 08:02:51;;;;;;;8.87;6.03;;;9.10;99.90;;;;;;4122172;28;20509;-61
2021/11/08 08:04:53;;;;;;;6.30;4.47;;;9.10;99.90;;;;;;4124575;28;20402;-61
2021/11/08 08:06:54;;;;;;;6.57;4.87;;;9.10;99.90;;;;;;4123312;28;20101;-61
2021/11/08 08:08:55;;;;;;;8.60;5.13;;;9.10;99.90;;;;;;4124566;28;20050;-61
2021/11/08 08:10:57;;;;;;;8.53;4.50;;;9.10;99.90;;;;;;4122581;28;20041;-62
2021/11/08 08:13:00;;;;;;;4.67;3.70;;;9.10;99.90;;;;;;4124459;28;20046;-62
2021/11/08 08:15:01;;;;;;;5.67;3.70;;;9.10;99.90;;;;;;4123791;28;20620;-62
2021/11/08 08:17:04;;;;;;;5.03;3.40;;;9.10;99.90;;;;;;4123923;28;20038;-64
2021/11/08 08:19:05;;;;;;;5.67;3.97;;;9.10;99.90;;;;;;4122610;28;20089;-62
2021/11/08 08:21:07;;;;;;;7.00;3.83;;;9.10;99.90;;;;;;4122955;28;20111;-61
2021/11/08 08:23:09;;;;;;;7.37;3.40;;;9.10;99.90;;;;;;4123721;28;20034;-61
2021/11/08 08:25:11;;;;;;;8.50;3.60;;;9.10;99.90;;;;;;4123043;28;20046;-60
2021/11/08 08:27:12;;;;;;;5.00;3.77;;;9.10;99.90;;;;;;4124145;28;20042;-61
2021/11/08 08:29:14;;;;;;;9.87;5.00;;;9.10;99.90;;;;;;4122552;28;20062;-66
2021/11/08 08:31:15;;;;;;;5.20;4.40;;;9.10;99.90;;;;;;4123842;28;20526;-63
2021/11/08 08:33:18;;;;;;;7.07;5.30;;;9.10;99.90;;;;;;4122754;28;20038;-61
2021/11/08 08:35:19;;;;;;;6.27;4.10;;;9.10;99.90;;;;;;4124210;28;20086;-61
2021/11/08 08:37:20;;;;;;;16.00;12.03;;;9.10;99.90;;;;;;4123111;28;20027;-61
2021/11/08 08:39:23;;;;;;;23.20;17.23;;;9.10;99.90;;;;;;4124736;28;20046;-58
2021/11/08 08:41:25;;;;;;;20.37;16.03;;;9.10;99.90;;;;;;4123278;28;20027;-60
2021/11/08 08:43:28;;;;;;;19.93;13.63;;;9.00;99.90;;;;;;4124713;28;20430;-61
2021/11/08 08:45:31;;;;;;;16.67;12.20;;;9.00;99.90;;;;;;4123616;28;20096;-61
2021/11/08 08:47:33;;;;;;;18.57;11.93;;;8.90;99.90;;;;;;4124635;28;20038;-62
2021/11/08 08:49:34;;;;;;;13.37;9.93;;;8.90;99.90;;;;;;4123373;28;20035;-61
2021/11/08 08:51:36;;;;;;;19.57;9.87;;;8.80;99.90;;;;;;4124140;28;20483;-60
2021/11/08 08:53:38;;;;;;;14.73;9.80;;;8.90;99.90;;;;;;4122921;28;20042;-63
2021/11/08 08:55:40;;;;;;;13.37;9.73;;;8.80;99.90;;;;;;4122535;28;20042;-62
2021/11/08 08:57:42;;;;;;;14.53;8.53;;;8.80;99.90;;;;;;4123350;28;20046;-61
2021/11/08 08:59:43;;;;;;;13.30;9.10;;;8.80;99.90;;;;;;4122568;28;20042;-62
2021/11/08 09:01:44;;;;;;;16.47;11.37;;;8.80;99.90;;;;;;4123482;28;20430;-62
2021/11/08 09:03:45;;;;;;;13.90;9.10;;;8.80;99.90;;;;;;4122953;28;20042;-62
2021/11/08 09:05:47;;;;;;;11.27;8.23;;;8.80;99.90;;;;;;4124330;28;20092;-62
2021/11/08 09:07:50;;;;;;;13.97;9.73;;;8.80;99.90;;;;;;4121210;28;20050;-63
2021/11/08 09:09:51;;;;;;;15.33;12.40;;;8.90;99.90;;;;;;4123823;28;20046;-62
2021/11/08 09:11:52;;;;;;;17.67;12.53;;;8.90;99.90;;;;;;4122664;28;20423;-62
2021/11/08 09:13:53;;;;;;;19.73;13.40;;;8.90;99.90;;;;;;4124325;28;20532;-61
2021/11/08 09:15:55;;;;;;;15.90;11.17;;;8.90;99.90;;;;;;4122886;28;20085;-62
2021/11/08 09:17:57;;;;;;;13.13;10.33;;;8.90;99.90;;;;;;4123425;28;20046;-62
2021/11/08 09:19:58;;;;;;;14.40;9.47;;;8.90;99.90;;;;;;4123289;28;20092;-62
2021/11/08 09:22:00;;;;;;;14.87;7.47;;;8.90;99.90;;;;;;4123664;28;20030;-62
2021/11/08 09:24:04;;;;;;;10.37;6.13;;;8.90;99.90;;;;;;4122929;28;20085;-61
2021/11/08 09:26:06;;;;;;;12.47;6.67;;;8.90;99.90;;;;;;4123327;28;20065;-62
2021/11/08 09:28:08;;;;;;;8.90;5.77;;;8.90;99.90;;;;;;4121698;28;20054;-61
2021/11/08 09:30:12;;;;;;;6.80;5.33;;;8.90;99.90;;;;;;4124203;28;20042;-62
2021/11/08 09:32:13;;;;;;;8.33;6.07;;;8.90;99.90;;;;;;4126924;28;20038;-63
2021/11/08 09:34:20;;;;;;;7.33;5.40;;;9.00;99.90;;;;;;4125653;28;20636;-64
2021/11/08 09:36:21;;;;;;;6.83;5.20;;;8.90;99.90;;;;;;4126579;28;20034;-62
2021/11/08 09:38:23;;;;;;;9.67;6.03;;;8.90;99.90;;;;;;4125248;28;20050;-62
2021/11/08 09:40:25;;;;;;;7.17;5.37;;;8.90;99.90;;;;;;4125977;28;20113;-62
2021/11/08 09:42:28;;;;;;;9.73;5.23;;;8.80;99.90;;;;;;4125341;28;20523;-64
2021/11/08 09:44:29;;;;;;;7.17;4.40;;;8.80;99.90;;;;;;4126954;28;20026;-62
2021/11/08 09:46:32;;;;;;;5.93;4.70;;;8.80;99.90;;;;;;4124510;28;20042;-64
2021/11/08 09:48:38;;;;;;;5.53;3.47;;;8.80;99.90;;;;;;4126250;28;20613;-62
2021/11/08 09:50:43;;;;;;;5.03;3.57;;;8.80;99.90;;;;;;4125319;28;20392;-63
2021/11/08 09:52:47;;;;;;;7.33;4.10;;;8.70;99.90;;;;;;4125508;28;20101;-62
2021/11/08 09:54:48;;;;;;;10.20;4.80;;;8.70;99.90;;;;;;4125317;28;20046;-62
2021/11/08 09:56:49;;;;;;;7.43;4.20;;;8.70;99.90;;;;;;4126241;28;20046;-62
2021/11/08 09:58:56;;;;;;;6.23;3.53;;;8.70;99.90;;;;;;4125070;28;20084;-61
2021/11/08 10:00:59;;;;;;;8.20;4.23;;;8.70;99.90;;;;;;4126289;28;20080;-61
2021/11/08 10:03:02;;;;;;;5.27;4.13;;;8.70;99.90;;;;;;4125547;28;20026;-63
2021/11/08 10:05:05;;;;;;;3.47;2.90;;;8.70;99.90;;;;;;4125889;28;20071;-61
2021/11/08 10:07:07;;;;;;;6.77;4.23;;;8.70;99.90;;;;;;4125757;28;20038;-62
2021/11/08 10:09:13;;;;;;;4.93;3.20;;;8.70;99.90;;;;;;4125705;28;20026;-62
2021/11/08 10:11:16;;;;;;;4.17;3.30;;;8.70;99.90;;;;;;4125868;28;20041;-62
2021/11/08 10:13:23;;;;;;;7.03;4.80;;;8.70;99.90;;;;;;4125090;28;20042;-60
2021/11/08 10:15:24;;;;;;;8.77;6.00;;;8.70;99.90;;;;;;4126010;28;20042;-62
2021/11/08 10:17:28;;;;;;;14.77;8.07;;;8.70;99.90;;;;;;4125077;28;20069;-63
2021/11/08 10:19:34;;;;;;;7.40;6.20;;;8.80;99.90;;;;;;4126032;28;20097;-61
2021/11/08 10:21:50;;;;;;;8.27;4.87;;;8.80;99.90;;;;;;4124140;28;20444;-63
2021/11/08 10:23:54;;;;;;;8.50;3.57;;;8.90;99.90;;;;;;4126126;28;20088;-62
2021/11/08 10:25:55;;;;;;;5.30;4.27;;;8.90;99.90;;;;;;4124759;28;20084;-62
2021/11/08 10:27:56;;;;;;;5.53;3.13;;;8.90;99.90;;;;;;4125670;28;20073;-61
2021/11/08 10:29:57;;;;;;;4.50;3.50;;;8.90;99.90;;;;;;4123256;28;20037;-61
2021/11/08 10:32:05;;;;;;;10.43;6.80;;;8.90;99.90;;;;;;4125362;28;20168;-62
2021/11/08 10:34:08;;;;;;;7.73;3.93;;;8.90;99.90;;;;;;4123820;28;20109;-63
2021/11/08 10:36:20;;;;;;;5.93;4.40;;;8.90;99.90;;;;;;4125981;28;20031;-62
2021/11/08 10:38:27;;;;;;;7.37;5.63;;;8.90;99.90;;;;;;4124557;28;20023;-61
2021/11/08 10:40:39;;;;;;;7.30;3.80;;;8.90;99.90;;;;;;4125720;28;20821;-63
2021/11/08 10:42:43;;;;;;;7.07;4.20;;;8.80;99.90;;;;;;4123524;28;20101;-64
2021/11/08 10:44:44;;;;;;;5.03;3.83;;;8.80;99.90;;;;;;4123398;28;20049;-61
2021/11/08 10:47:14;;;;;;;5.07;3.73;;;8.80;99.90;;;;;;4123994;28;20096;-63
2021/11/08 10:49:18;;;;;;;6.80;4.55;;;8.80;99.90;;;;;;4113009;28;20108;-62
2021/11/08 10:51:25;;;;;;;7.63;4.60;;;8.80;99.90;;;;;;4123779;28;20096;-62
2021/11/08 10:53:30;;;;;;;7.80;4.73;;;8.80;99.90;;;;;;4125534;28;20554;-66
2021/11/08 10:55:32;;;;;;;8.33;5.67;;;8.80;99.90;;;;;;4124435;28;20026;-61
2021/11/08 10:57:33;;;;;;;10.30;6.83;;;8.80;99.90;;;;;;4125291;28;20076;-60
2021/11/08 10:59:43;;;;;;;14.27;10.20;;;8.80;99.90;;;;;;4123530;28;20042;-61
2021/11/08 11:01:48;;;;;;;15.43;10.37;;;8.80;99.90;;;;;;4125400;28;20030;-62
2021/11/08 11:03:54;;;;;;;13.23;10.23;;;8.80;99.90;;;;;;4124047;28;20152;-62
2021/11/08 11:06:05;;;;;;;14.03;9.93;;;8.80;99.90;;;;;;4124526;28;20093;-62
2021/11/08 11:08:07;;;;;;;10.43;7.77;;;8.80;99.90;;;;;;4123653;28;20051;-61
2021/11/08 11:10:17;;;;;;;8.37;6.70;;;8.80;99.90;;;;;;4125023;28;20050;-62
2021/11/08 11:12:23;;;;;;;12.80;7.90;;;8.90;99.90;;;;;;4123702;28;20100;-62
2021/11/08 11:14:42;;;;;;;13.90;8.37;;;8.90;99.90;;;;;;4124395;28;20030;-62
2021/11/08 11:16:49;;;;;;;17.07;9.60;;;8.90;99.90;;;;;;4123428;28;20054;-61
2021/11/08 11:18:59;;;;;;;12.07;8.40;;;8.90;99.90;;;;;;4124922;28;20084;-63
2021/11/08 11:21:20;;;;;;;10.95;7.82;;;8.90;99.90;;;;;;4123574;28;20108;-61
2021/11/08 11:23:26;;;;;;;12.90;6.18;;;8.90;99.90;;;;;;4124936;28;20093;-62
2021/11/08 11:25:33;;;;;;;9.77;6.33;;;8.90;99.90;;;;;;4123409;28;20050;-62
2021/11/08 11:27:51;;;;;;;9.97;6.93;;;8.90;99.90;;;;;;4125159;28;20697;-62
2021/11/08 11:29:53;;;;;;;14.00;10.27;;;8.90;99.90;;;;;;4122744;28;20062;-61
2021/11/08 11:31:55;;;;;;;20.07;14.67;;;8.90;99.90;;;;;;4124340;28;20038;-61
2021/11/08 11:34:10;;;;;;;17.03;13.03;;;8.90;99.90;;;;;;4124070;28;20104;-61
2021/11/08 11:36:17;;;;;;;12.53;10.10;;;8.90;99.90;;;;;;4124569;28;20085;-62
2021/11/08 11:38:24;;;;;;;11.40;8.63;;;8.90;99.90;;;;;;4123534;28;20054;-61
2021/11/08 11:40:25;;;;;;;10.90;8.37;;;8.90;99.90;;;;;;4124217;28;20089;-62
2021/11/08 11:42:26;;;;;;;9.00;7.03;;;8.90;99.90;;;;;;4123619;28;20054;-63
2021/11/08 11:44:27;;;;;;;11.23;7.33;;;8.90;99.90;;;;;;4124745;28;20430;-62
2021/11/08 11:46:32;;;;;;;12.40;8.50;;;8.90;99.90;;;;;;4124337;28;20100;-62
2021/11/08 11:48:35;;;;;;;13.40;9.73;;;8.90;99.90;;;;;;4123053;28;20046;-63
2021/11/08 11:50:36;;;;;;;12.47;9.27;;;8.90;99.90;;;;;;4124491;28;20038;-62
2021/11/08 11:52:43;;;;;;;11.80;9.13;;;8.90;99.90;;;;;;4123134;28;20034;-62
2021/11/08 11:54:44;;;;;;;14.77;8.60;;;8.90;99.90;;;;;;4124170;28;20046;-61
2021/11/08 11:56:48;;;;;;;11.57;7.83;;;8.90;99.90;;;;;;4123280;28;20483;-63
2021/11/08 11:58:50;;;;;;;11.70;8.10;;;8.90;99.90;;;;;;4124048;28;20042;-62
2021/11/08 12:00:52;;;;;;;13.33;7.70;;;8.90;99.90;;;;;;4123676;28;20109;-65
2021/11/08 12:02:55;;;;;;;13.70;6.30;;;9.00;99.90;;;;;;4123481;28;20046;-62
2021/11/08 12:04:56;;;;;;;9.63;6.60;;;9.00;99.90;;;;;;4123681;28;20050;-62
2021/11/08 12:07:02;;;;;;;9.53;6.23;;;9.00;99.90;;;;;;4124784;28;20426;-63
2021/11/08 12:09:07;;;;;;;9.43;5.23;;;9.00;99.90;;;;;;4122939;28;20100;-63
2021/11/08 12:11:10;;;;;;;9.47;5.87;;;9.00;99.90;;;;;;4123498;28;20050;-61
2021/11/08 12:13:22;;;;;;;10.30;6.87;;;9.00;99.90;;;;;;4121619;28;20046;-61
2021/11/08 12:15:30;;;;;;;13.43;7.03;;;9.00;99.90;;;;;;4125079;28;20116;-62
2021/11/08 12:17:41;;;;;;;8.07;6.17;;;9.00;99.90;;;;;;4120268;28;20084;-64
2021/11/08 12:19:44;;;;;;;10.43;5.50;;;9.00;99.90;;;;;;4123991;28;20089;-63
2021/11/08 12:21:48;;;;;;;13.47;7.40;;;8.90;99.90;;;;;;4122870;28;20085;-62
2021/11/08 12:23:50;;;;;;;11.37;7.13;;;8.90;99.90;;;;;;4123777;28;20874;-63
2021/11/08 12:25:52;;;;;;;12.67;6.83;;;8.90;99.90;;;;;;4122695;28;20023;-63
2021/11/08 12:28:08;;;;;;;12.67;7.43;;;8.90;99.90;;;;;;4122309;28;20042;-61
2021/11/08 12:30:17;;;;;;;13.23;7.33;;;8.90;99.90;;;;;;4122364;28;20034;-62